sensor_id;sensor_type;location;lat;lon;timestamp;temperature;humidity
56761;DHT22;42633;44.494;11.356;2022-07-06T00:01:24;27.60;89.90
56761;DHT22;42633;44.494;11.356;2022-07-06T00:04:28;27.60;90.40
56761;DHT22;42633;44.494;11.356;2022-07-06T00:07:32;27.50;90.40
56761;DHT22;42633;44.494;11.356;2022-07-06T00:10:36;27.50;90.50
56761;DHT22;42633;44.494;11.356;2022-07-06T00:13:41;27.50;91.00
56761;DHT22;42633;44.494;11.356;2022-07-06T00:16:46;27.50;90.80
56761;DHT22;42633;44.494;11.356;2022-07-06T00:19:50;27.50;90.90
56761;DHT22;42633;44.494;11.356;2022-07-06T00:22:54;27.50;91.10
56761;DHT22;42633;44.494;11.356;2022-07-06T00:25:57;27.50;91.70
56761;DHT22;42633;44.494;11.356;2022-07-06T00:29:02;27.50;92.60
56761;DHT22;42633;44.494;11.356;2022-07-06T00:32:06;27.40;93.20
56761;DHT22;42633;44.494;11.356;2022-07-06T00:35:10;27.20;94.80
56761;DHT22;42633;44.494;11.356;2022-07-06T00:38:15;26.80;96.50
56761;DHT22;42633;44.494;11.356;2022-07-06T00:41:19;26.60;98.20
56761;DHT22;42633;44.494;11.356;2022-07-06T00:44:23;26.40;99.90
56761;DHT22;42633;44.494;11.356;2022-07-06T00:47:28;26.40;99.90
56761;DHT22;42633;44.494;11.356;2022-07-06T00:50:33;26.20;99.90
56761;DHT22;42633;44.494;11.356;2022-07-06T00:53:38;26.20;99.90
56761;DHT22;42633;44.494;11.356;2022-07-06T00:56:42;26.10;99.90
56761;DHT22;42633;44.494;11.356;2022-07-06T00:59:47;26.10;99.90
56761;DHT22;42633;44.494;11.356;2022-07-06T01:02:52;26.00;99.90
56761;DHT22;42633;44.494;11.356;2022-07-06T01:05:57;25.90;99.90
56761;DHT22;42633;44.494;11.356;2022-07-06T01:09:02;26.00;99.90
56761;DHT22;42633;44.494;11.356;2022-07-06T01:12:07;26.20;99.90
56761;DHT22;42633;44.494;11.356;2022-07-06T01:15:22;26.20;99.90
56761;DHT22;42633;44.494;11.356;2022-07-06T01:18:27;26.20;99.90
56761;DHT22;42633;44.494;11.356;2022-07-06T01:21:31;26.20;99.90
56761;DHT22;42633;44.494;11.356;2022-07-06T01:24:36;26.10;99.90
56761;DHT22;42633;44.494;11.356;2022-07-06T01:27:41;26.10;99.90
56761;DHT22;42633;44.494;11.356;2022-07-06T01:30:45;26.20;99.90
56761;DHT22;42633;44.494;11.356;2022-07-06T01:33:51;26.20;99.90
56761;DHT22;42633;44.494;11.356;2022-07-06T01:36:55;26.20;99.90
56761;DHT22;42633;44.494;11.356;2022-07-06T01:40:00;26.30;99.90
56761;DHT22;42633;44.494;11.356;2022-07-06T01:43:04;26.30;99.90
56761;DHT22;42633;44.494;11.356;2022-07-06T01:46:08;26.30;99.90
56761;DHT22;42633;44.494;11.356;2022-07-06T01:49:13;26.30;99.90
56761;DHT22;42633;44.494;11.356;2022-07-06T01:52:17;26.10;99.90
56761;DHT22;42633;44.494;11.356;2022-07-06T01:55:21;26.00;99.90
56761;DHT22;42633;44.494;11.356;2022-07-06T01:58:25;26.00;99.90
56761;DHT22;42633;44.494;11.356;2022-07-06T02:01:29;26.00;99.90
56761;DHT22;42633;44.494;11.356;2022-07-06T02:04:33;26.00;99.90
56761;DHT22;42633;44.494;11.356;2022-07-06T02:07:38;26.10;99.90
56761;DHT22;42633;44.494;11.356;2022-07-06T02:10:44;26.10;99.90
56761;DHT22;42633;44.494;11.356;2022-07-06T02:13:48;26.10;99.90
56761;DHT22;42633;44.494;11.356;2022-07-06T02:16:52;26.10;99.90
56761;DHT22;42633;44.494;11.356;2022-07-06T02:19:56;26.10;99.90
56761;DHT22;42633;44.494;11.356;2022-07-06T02:23:00;26.00;99.90
56761;DHT22;42633;44.494;11.356;2022-07-06T02:26:04;25.90;99.90
56761;DHT22;42633;44.494;11.356;2022-07-06T02:29:08;26.00;99.90
56761;DHT22;42633;44.494;11.356;2022-07-06T02:32:12;25.90;99.90
56761;DHT22;42633;44.494;11.356;2022-07-06T02:35:17;26.00;99.90
56761;DHT22;42633;44.494;11.356;2022-07-06T02:38:21;26.00;99.90
56761;DHT22;42633;44.494;11.356;2022-07-06T02:41:25;25.90;99.90
56761;DHT22;42633;44.494;11.356;2022-07-06T02:44:30;25.80;99.90
56761;DHT22;42633;44.494;11.356;2022-07-06T02:47:34;25.80;99.90
56761;DHT22;42633;44.494;11.356;2022-07-06T02:50:38;25.80;99.90
56761;DHT22;42633;44.494;11.356;2022-07-06T02:53:42;25.80;99.90
56761;DHT22;42633;44.494;11.356;2022-07-06T02:56:46;25.80;99.90
56761;DHT22;42633;44.494;11.356;2022-07-06T02:59:54;25.80;99.90
56761;DHT22;42633;44.494;11.356;2022-07-06T03:02:58;25.80;99.90
56761;DHT22;42633;44.494;11.356;2022-07-06T03:06:02;25.70;99.90
56761;DHT22;42633;44.494;11.356;2022-07-06T03:09:08;25.80;99.90
56761;DHT22;42633;44.494;11.356;2022-07-06T03:12:13;25.80;99.90
56761;DHT22;42633;44.494;11.356;2022-07-06T03:15:18;25.80;99.90
56761;DHT22;42633;44.494;11.356;2022-07-06T03:18:24;25.80;99.90
56761;DHT22;42633;44.494;11.356;2022-07-06T03:21:28;25.60;99.90
56761;DHT22;42633;44.494;11.356;2022-07-06T03:24:33;25.70;99.90
56761;DHT22;42633;44.494;11.356;2022-07-06T03:27:37;25.70;99.90
56761;DHT22;42633;44.494;11.356;2022-07-06T03:30:41;25.70;99.90
56761;DHT22;42633;44.494;11.356;2022-07-06T03:33:46;25.70;99.90
56761;DHT22;42633;44.494;11.356;2022-07-06T03:36:49;25.80;99.90
56761;DHT22;42633;44.494;11.356;2022-07-06T03:39:54;25.80;99.90
56761;DHT22;42633;44.494;11.356;2022-07-06T03:42:58;25.80;99.90
56761;DHT22;42633;44.494;11.356;2022-07-06T03:46:03;25.80;99.90
56761;DHT22;42633;44.494;11.356;2022-07-06T03:49:07;25.70;99.90
56761;DHT22;42633;44.494;11.356;2022-07-06T03:52:12;25.70;99.90
56761;DHT22;42633;44.494;11.356;2022-07-06T03:55:22;25.60;99.90
56761;DHT22;42633;44.494;11.356;2022-07-06T03:58:32;25.70;99.90
56761;DHT22;42633;44.494;11.356;2022-07-06T04:01:37;25.60;99.90
56761;DHT22;42633;44.494;11.356;2022-07-06T04:04:42;25.70;99.90
56761;DHT22;42633;44.494;11.356;2022-07-06T04:07:49;25.70;99.90
56761;DHT22;42633;44.494;11.356;2022-07-06T04:10:53;25.70;99.90
56761;DHT22;42633;44.494;11.356;2022-07-06T04:13:57;25.70;99.90
56761;DHT22;42633;44.494;11.356;2022-07-06T04:17:02;25.70;99.90
56761;DHT22;42633;44.494;11.356;2022-07-06T04:20:27;25.70;99.90
56761;DHT22;42633;44.494;11.356;2022-07-06T04:23:34;25.70;99.90
56761;DHT22;42633;44.494;11.356;2022-07-06T04:26:39;25.70;99.90
56761;DHT22;42633;44.494;11.356;2022-07-06T04:29:44;25.60;99.90
56761;DHT22;42633;44.494;11.356;2022-07-06T04:32:48;25.70;99.90
56761;DHT22;42633;44.494;11.356;2022-07-06T04:35:52;25.80;99.90
56761;DHT22;42633;44.494;11.356;2022-07-06T04:39:00;25.80;99.90
56761;DHT22;42633;44.494;11.356;2022-07-06T04:42:05;25.90;99.90
56761;DHT22;42633;44.494;11.356;2022-07-06T04:45:10;26.00;99.90
56761;DHT22;42633;44.494;11.356;2022-07-06T04:48:14;26.00;99.90
56761;DHT22;42633;44.494;11.356;2022-07-06T04:51:18;26.20;99.90
56761;DHT22;42633;44.494;11.356;2022-07-06T04:54:23;26.20;99.90
56761;DHT22;42633;44.494;11.356;2022-07-06T04:57:27;26.20;99.90
56761;DHT22;42633;44.494;11.356;2022-07-06T05:00:35;26.30;99.90
56761;DHT22;42633;44.494;11.356;2022-07-06T05:03:39;26.30;99.90
56761;DHT22;42633;44.494;11.356;2022-07-06T05:06:46;26.40;99.90
56761;DHT22;42633;44.494;11.356;2022-07-06T05:09:50;26.50;99.90
56761;DHT22;42633;44.494;11.356;2022-07-06T05:12:55;26.60;99.90
56761;DHT22;42633;44.494;11.356;2022-07-06T05:16:00;26.80;99.90
56761;DHT22;42633;44.494;11.356;2022-07-06T05:19:04;26.90;99.90
56761;DHT22;42633;44.494;11.356;2022-07-06T05:22:08;26.90;99.90
56761;DHT22;42633;44.494;11.356;2022-07-06T05:25:12;26.80;99.90
56761;DHT22;42633;44.494;11.356;2022-07-06T05:28:17;26.70;99.90
56761;DHT22;42633;44.494;11.356;2022-07-06T05:31:22;26.60;99.90
56761;DHT22;42633;44.494;11.356;2022-07-06T05:34:26;26.50;99.90
56761;DHT22;42633;44.494;11.356;2022-07-06T05:37:31;26.50;99.90
56761;DHT22;42633;44.494;11.356;2022-07-06T05:40:35;26.60;99.90
56761;DHT22;42633;44.494;11.356;2022-07-06T05:43:39;26.60;99.90
56761;DHT22;42633;44.494;11.356;2022-07-06T05:46:43;26.70;99.90
56761;DHT22;42633;44.494;11.356;2022-07-06T05:49:48;26.90;99.90
56761;DHT22;42633;44.494;11.356;2022-07-06T05:53:10;27.00;99.90
56761;DHT22;42633;44.494;11.356;2022-07-06T05:56:15;27.10;99.90
56761;DHT22;42633;44.494;11.356;2022-07-06T05:59:20;27.40;99.90
56761;DHT22;42633;44.494;11.356;2022-07-06T06:02:24;27.60;99.90
56761;DHT22;42633;44.494;11.356;2022-07-06T06:05:28;27.60;99.90
56761;DHT22;42633;44.494;11.356;2022-07-06T06:08:38;27.60;99.90
56761;DHT22;42633;44.494;11.356;2022-07-06T06:11:42;27.80;99.90
56761;DHT22;42633;44.494;11.356;2022-07-06T06:14:47;28.10;99.70
56761;DHT22;42633;44.494;11.356;2022-07-06T06:17:52;28.20;99.30
56761;DHT22;42633;44.494;11.356;2022-07-06T06:20:55;28.30;99.00
56761;DHT22;42633;44.494;11.356;2022-07-06T06:23:59;28.10;98.70
56761;DHT22;42633;44.494;11.356;2022-07-06T06:27:03;27.90;98.90
56761;DHT22;42633;44.494;11.356;2022-07-06T06:30:08;27.80;99.10
56761;DHT22;42633;44.494;11.356;2022-07-06T06:33:16;27.90;99.10
56761;DHT22;42633;44.494;11.356;2022-07-06T06:36:21;27.80;99.10
56761;DHT22;42633;44.494;11.356;2022-07-06T06:39:25;27.90;99.10
56761;DHT22;42633;44.494;11.356;2022-07-06T06:42:29;28.10;98.80
56761;DHT22;42633;44.494;11.356;2022-07-06T06:45:34;28.20;98.50
56761;DHT22;42633;44.494;11.356;2022-07-06T06:48:39;28.30;98.10
56761;DHT22;42633;44.494;11.356;2022-07-06T06:51:43;28.40;97.80
56761;DHT22;42633;44.494;11.356;2022-07-06T06:54:47;28.60;97.20
56761;DHT22;42633;44.494;11.356;2022-07-06T06:57:51;28.70;96.90
56761;DHT22;42633;44.494;11.356;2022-07-06T07:00:55;28.70;96.80
56761;DHT22;42633;44.494;11.356;2022-07-06T07:03:59;28.70;96.70
56761;DHT22;42633;44.494;11.356;2022-07-06T07:07:03;28.80;96.60
56761;DHT22;42633;44.494;11.356;2022-07-06T07:10:07;28.80;96.50
56761;DHT22;42633;44.494;11.356;2022-07-06T07:13:12;28.70;96.40
56761;DHT22;42633;44.494;11.356;2022-07-06T07:16:16;28.50;96.40
56761;DHT22;42633;44.494;11.356;2022-07-06T07:19:20;28.30;96.70
56761;DHT22;42633;44.494;11.356;2022-07-06T07:22:24;28.30;96.50
56761;DHT22;42633;44.494;11.356;2022-07-06T07:25:28;28.50;96.30
56761;DHT22;42633;44.494;11.356;2022-07-06T07:28:32;28.50;96.00
56761;DHT22;42633;44.494;11.356;2022-07-06T07:31:36;28.50;96.10
56761;DHT22;42633;44.494;11.356;2022-07-06T07:34:40;28.60;96.00
56761;DHT22;42633;44.494;11.356;2022-07-06T07:37:44;28.60;95.90
56761;DHT22;42633;44.494;11.356;2022-07-06T07:40:48;28.60;95.70
56761;DHT22;42633;44.494;11.356;2022-07-06T07:43:52;28.60;96.10
56761;DHT22;42633;44.494;11.356;2022-07-06T07:46:56;28.50;96.00
56761;DHT22;42633;44.494;11.356;2022-07-06T07:50:00;28.50;96.40
56761;DHT22;42633;44.494;11.356;2022-07-06T07:53:04;28.60;96.40
56761;DHT22;42633;44.494;11.356;2022-07-06T07:56:08;28.80;96.30
56761;DHT22;42633;44.494;11.356;2022-07-06T07:59:13;28.90;96.00
56761;DHT22;42633;44.494;11.356;2022-07-06T08:02:19;29.10;95.90
56761;DHT22;42633;44.494;11.356;2022-07-06T08:05:23;29.00;95.90
56761;DHT22;42633;44.494;11.356;2022-07-06T08:08:27;28.90;96.20
56761;DHT22;42633;44.494;11.356;2022-07-06T08:11:32;29.10;96.00
56761;DHT22;42633;44.494;11.356;2022-07-06T08:14:36;29.30;95.50
56761;DHT22;42633;44.494;11.356;2022-07-06T08:17:41;29.20;95.40
56761;DHT22;42633;44.494;11.356;2022-07-06T08:20:45;29.40;95.00
56761;DHT22;42633;44.494;11.356;2022-07-06T08:23:49;29.50;94.80
56761;DHT22;42633;44.494;11.356;2022-07-06T08:26:53;29.60;94.90
56761;DHT22;42633;44.494;11.356;2022-07-06T08:29:57;29.70;94.50
56761;DHT22;42633;44.494;11.356;2022-07-06T08:33:01;29.80;94.30
56761;DHT22;42633;44.494;11.356;2022-07-06T08:36:06;29.80;94.30
56761;DHT22;42633;44.494;11.356;2022-07-06T08:39:10;29.80;94.30
56761;DHT22;42633;44.494;11.356;2022-07-06T08:42:16;30.00;94.00
56761;DHT22;42633;44.494;11.356;2022-07-06T08:45:20;30.00;93.70
56761;DHT22;42633;44.494;11.356;2022-07-06T08:48:27;29.80;94.00
56761;DHT22;42633;44.494;11.356;2022-07-06T08:51:35;29.80;94.20
56761;DHT22;42633;44.494;11.356;2022-07-06T08:54:41;30.00;94.00
56761;DHT22;42633;44.494;11.356;2022-07-06T08:57:48;30.10;93.70
56761;DHT22;42633;44.494;11.356;2022-07-06T09:00:54;30.10;93.50
56761;DHT22;42633;44.494;11.356;2022-07-06T09:03:59;29.80;94.00
56761;DHT22;42633;44.494;11.356;2022-07-06T09:07:04;29.60;94.10
56761;DHT22;42633;44.494;11.356;2022-07-06T09:10:09;30.00;93.90
56761;DHT22;42633;44.494;11.356;2022-07-06T09:13:13;30.30;93.30
56761;DHT22;42633;44.494;11.356;2022-07-06T09:16:26;30.70;92.80
56761;DHT22;42633;44.494;11.356;2022-07-06T09:19:32;30.90;92.30
56761;DHT22;42633;44.494;11.356;2022-07-06T09:22:37;30.60;93.00
56761;DHT22;42633;44.494;11.356;2022-07-06T09:25:41;30.00;93.90
56761;DHT22;42633;44.494;11.356;2022-07-06T09:28:45;29.90;94.20
56761;DHT22;42633;44.494;11.356;2022-07-06T09:32:00;30.00;94.10
56761;DHT22;42633;44.494;11.356;2022-07-06T09:35:04;30.10;93.90
56761;DHT22;42633;44.494;11.356;2022-07-06T09:38:13;30.40;93.70
56761;DHT22;42633;44.494;11.356;2022-07-06T09:41:31;30.60;93.30
56761;DHT22;42633;44.494;11.356;2022-07-06T09:44:39;30.90;92.70
56761;DHT22;42633;44.494;11.356;2022-07-06T09:47:49;31.10;92.60
56761;DHT22;42633;44.494;11.356;2022-07-06T09:50:59;31.40;91.70
56761;DHT22;42633;44.494;11.356;2022-07-06T09:54:08;31.30;91.70
56761;DHT22;42633;44.494;11.356;2022-07-06T09:57:15;31.10;91.80
56761;DHT22;42633;44.494;11.356;2022-07-06T10:00:21;31.00;91.90
56761;DHT22;42633;44.494;11.356;2022-07-06T10:03:25;31.00;91.50
56761;DHT22;42633;44.494;11.356;2022-07-06T10:06:29;31.20;91.10
56761;DHT22;42633;44.494;11.356;2022-07-06T10:09:33;31.30;91.30
56761;DHT22;42633;44.494;11.356;2022-07-06T10:12:41;31.20;91.10
56761;DHT22;42633;44.494;11.356;2022-07-06T10:15:46;31.40;90.70
56761;DHT22;42633;44.494;11.356;2022-07-06T10:18:52;31.30;90.60
56761;DHT22;42633;44.494;11.356;2022-07-06T10:22:00;31.00;91.20
56761;DHT22;42633;44.494;11.356;2022-07-06T10:25:05;31.20;90.80
56761;DHT22;42633;44.494;11.356;2022-07-06T10:28:10;31.50;90.30
56761;DHT22;42633;44.494;11.356;2022-07-06T10:31:19;31.70;90.00
56761;DHT22;42633;44.494;11.356;2022-07-06T10:34:25;31.60;89.40
56761;DHT22;42633;44.494;11.356;2022-07-06T10:37:29;31.80;88.70
56761;DHT22;42633;44.494;11.356;2022-07-06T10:40:40;32.20;87.70
56761;DHT22;42633;44.494;11.356;2022-07-06T10:44:20;32.50;86.30
56761;DHT22;42633;44.494;11.356;2022-07-06T10:47:27;32.80;84.50
56761;DHT22;42633;44.494;11.356;2022-07-06T10:50:35;33.10;83.30
56761;DHT22;42633;44.494;11.356;2022-07-06T10:53:40;33.20;82.30
56761;DHT22;42633;44.494;11.356;2022-07-06T10:56:47;33.00;82.50
56761;DHT22;42633;44.494;11.356;2022-07-06T11:00:05;32.80;81.10
56761;DHT22;42633;44.494;11.356;2022-07-06T11:03:35;32.60;81.00
56761;DHT22;42633;44.494;11.356;2022-07-06T11:06:40;32.60;80.80
56761;DHT22;42633;44.494;11.356;2022-07-06T11:09:58;32.70;79.50
56761;DHT22;42633;44.494;11.356;2022-07-06T11:13:03;32.70;78.80
56761;DHT22;42633;44.494;11.356;2022-07-06T11:16:07;32.80;77.10
56761;DHT22;42633;44.494;11.356;2022-07-06T11:19:13;33.10;76.10
56761;DHT22;42633;44.494;11.356;2022-07-06T11:22:18;33.50;75.20
56761;DHT22;42633;44.494;11.356;2022-07-06T11:25:22;33.60;74.20
56761;DHT22;42633;44.494;11.356;2022-07-06T11:28:27;33.60;73.80
56761;DHT22;42633;44.494;11.356;2022-07-06T11:31:34;33.60;74.00
56761;DHT22;42633;44.494;11.356;2022-07-06T11:34:44;33.40;74.00
56761;DHT22;42633;44.494;11.356;2022-07-06T11:37:48;33.30;74.00
56761;DHT22;42633;44.494;11.356;2022-07-06T11:40:53;33.30;73.70
56761;DHT22;42633;44.494;11.356;2022-07-06T11:43:58;33.60;73.00
56761;DHT22;42633;44.494;11.356;2022-07-06T11:47:03;33.60;72.20
56761;DHT22;42633;44.494;11.356;2022-07-06T11:50:08;33.60;72.40
56761;DHT22;42633;44.494;11.356;2022-07-06T11:53:14;33.60;71.50
56761;DHT22;42633;44.494;11.356;2022-07-06T11:56:19;33.60;71.80
56761;DHT22;42633;44.494;11.356;2022-07-06T12:02:30;33.10;71.90
56761;DHT22;42633;44.494;11.356;2022-07-06T12:05:34;33.20;70.90
56761;DHT22;42633;44.494;11.356;2022-07-06T12:08:46;33.10;71.00
56761;DHT22;42633;44.494;11.356;2022-07-06T12:11:51;33.70;69.40
56761;DHT22;42633;44.494;11.356;2022-07-06T12:14:55;34.10;68.40
56761;DHT22;42633;44.494;11.356;2022-07-06T12:17:59;34.50;68.20
56761;DHT22;42633;44.494;11.356;2022-07-06T12:21:03;34.70;67.20
56761;DHT22;42633;44.494;11.356;2022-07-06T12:24:08;34.90;66.90
56761;DHT22;42633;44.494;11.356;2022-07-06T12:27:17;34.60;66.50
56761;DHT22;42633;44.494;11.356;2022-07-06T12:30:21;34.50;66.90
56761;DHT22;42633;44.494;11.356;2022-07-06T12:33:25;34.10;66.90
56761;DHT22;42633;44.494;11.356;2022-07-06T12:39:55;34.30;66.70
56761;DHT22;42633;44.494;11.356;2022-07-06T12:42:59;34.40;66.50
56761;DHT22;42633;44.494;11.356;2022-07-06T12:46:26;34.10;66.80
56761;DHT22;42633;44.494;11.356;2022-07-06T12:49:32;34.00;67.30
56761;DHT22;42633;44.494;11.356;2022-07-06T12:52:36;33.90;67.20
56761;DHT22;42633;44.494;11.356;2022-07-06T12:55:41;33.90;67.50
56761;DHT22;42633;44.494;11.356;2022-07-06T12:58:56;33.90;67.20
56761;DHT22;42633;44.494;11.356;2022-07-06T13:02:00;33.90;66.60
56761;DHT22;42633;44.494;11.356;2022-07-06T13:05:06;34.00;66.50
56761;DHT22;42633;44.494;11.356;2022-07-06T13:08:10;34.00;66.40
56761;DHT22;42633;44.494;11.356;2022-07-06T13:11:14;34.10;66.20
56761;DHT22;42633;44.494;11.356;2022-07-06T13:14:19;34.30;65.80
56761;DHT22;42633;44.494;11.356;2022-07-06T13:17:23;34.40;64.90
56761;DHT22;42633;44.494;11.356;2022-07-06T13:20:28;34.40;64.30
56761;DHT22;42633;44.494;11.356;2022-07-06T13:23:33;34.30;64.10
56761;DHT22;42633;44.494;11.356;2022-07-06T13:26:37;34.40;64.10
56761;DHT22;42633;44.494;11.356;2022-07-06T13:29:42;34.50;63.80
56761;DHT22;42633;44.494;11.356;2022-07-06T13:32:46;34.60;63.70
56761;DHT22;42633;44.494;11.356;2022-07-06T13:35:51;34.60;63.40
56761;DHT22;42633;44.494;11.356;2022-07-06T13:38:54;34.50;62.60
56761;DHT22;42633;44.494;11.356;2022-07-06T13:41:58;34.20;62.80
56761;DHT22;42633;44.494;11.356;2022-07-06T13:45:03;34.10;61.60
56761;DHT22;42633;44.494;11.356;2022-07-06T13:48:07;34.20;62.20
56761;DHT22;42633;44.494;11.356;2022-07-06T13:51:11;34.20;61.40
56761;DHT22;42633;44.494;11.356;2022-07-06T13:54:16;34.10;61.30
56761;DHT22;42633;44.494;11.356;2022-07-06T13:57:20;34.10;60.20
56761;DHT22;42633;44.494;11.356;2022-07-06T14:00:24;34.00;60.30
56761;DHT22;42633;44.494;11.356;2022-07-06T14:03:29;33.80;60.00
56761;DHT22;42633;44.494;11.356;2022-07-06T14:06:33;33.50;60.50
56761;DHT22;42633;44.494;11.356;2022-07-06T14:09:37;33.30;60.50
56761;DHT22;42633;44.494;11.356;2022-07-06T14:12:41;33.30;60.60
56761;DHT22;42633;44.494;11.356;2022-07-06T14:15:45;33.20;60.00
56761;DHT22;42633;44.494;11.356;2022-07-06T14:18:49;33.10;60.30
56761;DHT22;42633;44.494;11.356;2022-07-06T14:21:54;33.10;60.00
56761;DHT22;42633;44.494;11.356;2022-07-06T14:24:59;33.10;59.80
56761;DHT22;42633;44.494;11.356;2022-07-06T14:28:03;33.00;58.80
56761;DHT22;42633;44.494;11.356;2022-07-06T14:31:08;33.10;58.80
56761;DHT22;42633;44.494;11.356;2022-07-06T14:34:13;33.10;58.60
56761;DHT22;42633;44.494;11.356;2022-07-06T14:37:17;33.10;58.00
56761;DHT22;42633;44.494;11.356;2022-07-06T14:40:21;33.20;58.30
56761;DHT22;42633;44.494;11.356;2022-07-06T14:43:25;33.10;58.00
56761;DHT22;42633;44.494;11.356;2022-07-06T14:46:30;33.30;58.00
56761;DHT22;42633;44.494;11.356;2022-07-06T14:49:34;33.30;57.90
56761;DHT22;42633;44.494;11.356;2022-07-06T14:52:38;33.50;58.10
56761;DHT22;42633;44.494;11.356;2022-07-06T14:55:43;33.40;58.10
56761;DHT22;42633;44.494;11.356;2022-07-06T14:58:46;33.30;57.80
56761;DHT22;42633;44.494;11.356;2022-07-06T15:01:51;33.30;58.00
56761;DHT22;42633;44.494;11.356;2022-07-06T15:04:55;33.20;58.60
56761;DHT22;42633;44.494;11.356;2022-07-06T15:07:59;33.00;58.40
56761;DHT22;42633;44.494;11.356;2022-07-06T15:11:03;32.90;58.20
56761;DHT22;42633;44.494;11.356;2022-07-06T15:14:07;32.70;58.50
56761;DHT22;42633;44.494;11.356;2022-07-06T15:17:11;32.60;58.70
56761;DHT22;42633;44.494;11.356;2022-07-06T15:20:16;32.60;58.40
56761;DHT22;42633;44.494;11.356;2022-07-06T15:23:20;32.50;58.80
56761;DHT22;42633;44.494;11.356;2022-07-06T15:26:24;32.60;58.90
56761;DHT22;42633;44.494;11.356;2022-07-06T15:29:30;32.50;58.40
56761;DHT22;42633;44.494;11.356;2022-07-06T15:32:35;32.30;58.20
56761;DHT22;42633;44.494;11.356;2022-07-06T15:35:39;32.20;58.30
56761;DHT22;42633;44.494;11.356;2022-07-06T15:38:43;32.20;58.20
56761;DHT22;42633;44.494;11.356;2022-07-06T15:41:47;32.20;57.80
56761;DHT22;42633;44.494;11.356;2022-07-06T15:44:51;32.30;57.90
56761;DHT22;42633;44.494;11.356;2022-07-06T15:47:56;32.30;57.20
56761;DHT22;42633;44.494;11.356;2022-07-06T15:51:01;32.30;57.70
56761;DHT22;42633;44.494;11.356;2022-07-06T15:54:05;32.30;56.80
56761;DHT22;42633;44.494;11.356;2022-07-06T15:57:09;32.20;55.30
56761;DHT22;42633;44.494;11.356;2022-07-06T16:00:14;32.20;56.10
56761;DHT22;42633;44.494;11.356;2022-07-06T16:03:19;32.30;56.40
56761;DHT22;42633;44.494;11.356;2022-07-06T16:06:23;32.50;56.40
56761;DHT22;42633;44.494;11.356;2022-07-06T16:09:27;32.70;56.50
56761;DHT22;42633;44.494;11.356;2022-07-06T16:12:31;32.90;55.50
56761;DHT22;42633;44.494;11.356;2022-07-06T16:15:35;32.90;55.20
56761;DHT22;42633;44.494;11.356;2022-07-06T16:18:39;33.00;53.30
56761;DHT22;42633;44.494;11.356;2022-07-06T16:21:44;33.50;53.30
56761;DHT22;42633;44.494;11.356;2022-07-06T16:24:49;34.90;52.40
56761;DHT22;42633;44.494;11.356;2022-07-06T16:27:53;36.00;51.50
56761;DHT22;42633;44.494;11.356;2022-07-06T16:30:57;36.80;50.90
56761;DHT22;42633;44.494;11.356;2022-07-06T16:34:01;37.30;48.90
56761;DHT22;42633;44.494;11.356;2022-07-06T16:37:05;37.00;48.40
56761;DHT22;42633;44.494;11.356;2022-07-06T16:40:10;36.80;49.50
56761;DHT22;42633;44.494;11.356;2022-07-06T16:43:14;37.20;49.30
56761;DHT22;42633;44.494;11.356;2022-07-06T16:46:19;37.80;49.20
56761;DHT22;42633;44.494;11.356;2022-07-06T16:49:24;38.30;47.30
56761;DHT22;42633;44.494;11.356;2022-07-06T16:52:28;38.40;47.30
56761;DHT22;42633;44.494;11.356;2022-07-06T16:55:34;39.00;46.00
56761;DHT22;42633;44.494;11.356;2022-07-06T16:58:38;39.10;44.90
56761;DHT22;42633;44.494;11.356;2022-07-06T17:01:42;39.40;45.00
56761;DHT22;42633;44.494;11.356;2022-07-06T17:04:46;39.60;44.30
56761;DHT22;42633;44.494;11.356;2022-07-06T17:07:50;39.30;45.50
56761;DHT22;42633;44.494;11.356;2022-07-06T17:10:55;39.30;43.40
56761;DHT22;42633;44.494;11.356;2022-07-06T17:13:59;39.20;43.90
56761;DHT22;42633;44.494;11.356;2022-07-06T17:17:03;39.10;44.30
56761;DHT22;42633;44.494;11.356;2022-07-06T17:20:08;38.30;43.90
56761;DHT22;42633;44.494;11.356;2022-07-06T17:23:13;36.90;45.40
56761;DHT22;42633;44.494;11.356;2022-07-06T17:26:17;35.50;47.00
56761;DHT22;42633;44.494;11.356;2022-07-06T17:29:21;34.50;47.50
56761;DHT22;42633;44.494;11.356;2022-07-06T17:32:25;33.70;47.80
56761;DHT22;42633;44.494;11.356;2022-07-06T17:35:29;33.20;50.40
56761;DHT22;42633;44.494;11.356;2022-07-06T17:38:34;32.80;49.40
56761;DHT22;42633;44.494;11.356;2022-07-06T17:41:38;32.50;50.40
56761;DHT22;42633;44.494;11.356;2022-07-06T17:44:42;32.30;50.40
56761;DHT22;42633;44.494;11.356;2022-07-06T17:47:46;32.20;51.30
56761;DHT22;42633;44.494;11.356;2022-07-06T17:50:51;32.00;50.80
56761;DHT22;42633;44.494;11.356;2022-07-06T17:53:55;31.90;51.50
56761;DHT22;42633;44.494;11.356;2022-07-06T17:56:59;31.90;51.30
56761;DHT22;42633;44.494;11.356;2022-07-06T18:00:05;31.70;51.10
56761;DHT22;42633;44.494;11.356;2022-07-06T18:03:11;31.60;51.70
56761;DHT22;42633;44.494;11.356;2022-07-06T18:06:16;31.60;51.90
56761;DHT22;42633;44.494;11.356;2022-07-06T18:09:20;31.50;52.20
56761;DHT22;42633;44.494;11.356;2022-07-06T18:12:24;31.40;53.70
56761;DHT22;42633;44.494;11.356;2022-07-06T18:15:28;31.30;53.10
56761;DHT22;42633;44.494;11.356;2022-07-06T18:18:57;31.20;54.30
56761;DHT22;42633;44.494;11.356;2022-07-06T18:22:06;31.10;53.80
56761;DHT22;42633;44.494;11.356;2022-07-06T18:25:11;31.00;53.50
56761;DHT22;42633;44.494;11.356;2022-07-06T18:28:28;30.90;54.60
56761;DHT22;42633;44.494;11.356;2022-07-06T18:31:33;30.80;54.90
56761;DHT22;42633;44.494;11.356;2022-07-06T18:34:41;30.80;54.50
56761;DHT22;42633;44.494;11.356;2022-07-06T18:37:45;30.70;54.50
56761;DHT22;42633;44.494;11.356;2022-07-06T18:40:50;30.60;54.50
56761;DHT22;42633;44.494;11.356;2022-07-06T18:43:54;30.50;55.00
56761;DHT22;42633;44.494;11.356;2022-07-06T18:46:58;30.40;55.00
56761;DHT22;42633;44.494;11.356;2022-07-06T18:50:03;30.30;55.10
56761;DHT22;42633;44.494;11.356;2022-07-06T18:53:08;30.20;55.50
56761;DHT22;42633;44.494;11.356;2022-07-06T18:56:12;30.20;56.10
56761;DHT22;42633;44.494;11.356;2022-07-06T18:59:16;30.20;56.80
56761;DHT22;42633;44.494;11.356;2022-07-06T19:02:20;30.10;56.90
56761;DHT22;42633;44.494;11.356;2022-07-06T19:05:24;30.00;57.10
56761;DHT22;42633;44.494;11.356;2022-07-06T19:08:29;29.90;56.90
56761;DHT22;42633;44.494;11.356;2022-07-06T19:11:33;29.80;57.10
56761;DHT22;42633;44.494;11.356;2022-07-06T19:14:37;29.70;57.20
56761;DHT22;42633;44.494;11.356;2022-07-06T19:17:41;29.70;57.50